Sunnyside, Canada
Current Conditions -  °F | °C
As of 11:00 AM on Monday 24 Nov 2014 (Local Time) from CYYT Reporting Station
Few Clouds Few Clouds  
Wind Chill: 19°   Ceiling: Unl
Heat Index: 30°   Visibility: 15mi
Dew Point: 18°   Wind: 16mph
Humidity: 60%   Direction: 320°NW
Pressure: 30.3"   Gusts: NA
Location:  47.87°N, 53.93°W
Report Text: CYYT 241400Z 32014KT 15SM FEW024 FEW200 M01/M08 A3030 RMK CU1CI1 SLP267
Loading
Personal Weather Stations






























Interactive Weather Map New forecast layout! Learn more

10-Day Weather Forecast

Advertisements
Track Severe Weather on mobile